Time;durP1;ratioP1;P1;durP2;ratioP2;P2;SDS_P1;SDS_P2;PMS_P1;PMS_P2;Temp;Humidity;BMP_temperature;BMP_pressure;BME280_temperature;BME280_humidity;BME280_pressure;Samples;Min_cycle;Max_cycle;Signal;HPM_P1;HPM_P2
2023/06/26 00:01:54;;;;;;;15.50;10.35;;;;;;;-144.73;100.00;54268.13;4995272;28;20040;-73
2023/06/26 00:04:20;;;;;;;17.10;10.75;;;;;;;-144.73;100.00;54266.06;5009689;28;20067;-73
2023/06/26 00:06:45;;;;;;;12.23;10.40;;;;;;;-144.73;100.00;54247.59;5009688;28;20030;-73
2023/06/26 00:09:12;;;;;;;13.25;10.30;;;;;;;-144.73;100.00;54280.44;5009772;28;20026;-72
2023/06/26 00:11:37;;;;;;;13.10;10.77;;;;;;;-144.73;100.00;54284.56;5009047;28;20041;-72
2023/06/26 00:14:02;;;;;;;13.23;9.90;;;;;;;-144.73;100.00;54278.41;5009845;28;20032;-72
2023/06/26 00:16:28;;;;;;;11.50;10.32;;;;;;;-144.73;100.00;54249.66;5009165;28;20022;-72
2023/06/26 00:18:53;;;;;;;12.68;10.65;;;;;;;-144.73;100.00;54284.56;5007477;28;20027;-72
2023/06/26 00:21:19;;;;;;;12.52;10.80;;;;;;;-144.73;100.00;54251.72;5008278;28;20113;-72
2023/06/26 00:23:45;;;;;;;14.20;10.77;;;;;;;-144.73;100.00;54247.59;5009627;28;20145;-72
2023/06/26 00:26:11;;;;;;;12.50;10.57;;;;;;;-144.73;100.00;54247.59;5008943;28;20037;-72
2023/06/26 00:28:37;;;;;;;14.27;12.35;;;;;;;-144.73;100.00;54247.59;5010516;28;20073;-72
2023/06/26 00:31:02;;;;;;;14.18;11.48;;;;;;;-144.73;100.00;54231.19;5008293;28;20443;-72
2023/06/26 00:33:28;;;;;;;15.55;11.13;;;;;;;-144.73;100.00;54284.56;5009617;28;20129;-72
2023/06/26 00:35:53;;;;;;;13.43;10.20;;;;;;;-144.73;100.00;54259.91;5008243;28;20033;-72
2023/06/26 00:38:18;;;;;;;21.27;17.27;;;;;;;-144.73;100.00;54280.44;5008451;28;20065;-72
2023/06/26 00:40:44;;;;;;;19.35;14.65;;;;;;;-144.73;100.00;54259.91;5008345;28;20064;-72
2023/06/26 00:43:09;;;;;;;15.70;11.38;;;;;;;-144.73;100.00;54255.81;5008706;28;20022;-73
2023/06/26 00:45:34;;;;;;;15.48;10.95;;;;;;;-144.73;100.00;54261.97;5008690;28;20034;-72
2023/06/26 00:48:00;;;;;;;14.07;10.93;;;;;;;-144.73;100.00;54342.03;5008588;28;20032;-72
2023/06/26 00:50:26;;;;;;;11.23;10.02;;;;;;;-144.73;100.00;54292.75;5002708;28;20030;-72
2023/06/26 00:52:52;;;;;;;14.13;10.25;;;;;;;-144.73;100.00;54239.41;5008718;28;20032;-74
2023/06/26 00:55:17;;;;;;;10.88;9.73;;;;;;;-144.73;100.00;54292.75;5008495;28;20061;-73
2023/06/26 00:57:45;;;;;;;16.27;12.38;;;;;;;-144.73;100.00;54296.88;5010204;28;20037;-73
2023/06/26 01:00:11;;;;;;;12.73;10.80;;;;;;;-144.73;100.00;54342.03;5006121;28;20040;-74
2023/06/26 01:02:38;;;;;;;15.43;11.63;;;;;;;-144.73;100.00;54284.56;5009799;28;20022;-72
2023/06/26 01:05:06;;;;;;;13.73;11.65;;;;;;;-144.73;100.00;54276.34;5008031;28;20540;-73
2023/06/26 01:07:36;;;;;;;18.90;11.45;;;;;;;-144.73;100.00;54296.88;5010209;28;20022;-72
2023/06/26 01:10:04;;;;;;;14.05;10.77;;;;;;;-144.73;100.00;54268.13;5009027;28;20048;-72
2023/06/26 01:12:32;;;;;;;13.82;12.10;;;;;;;-144.73;100.00;54296.88;5004841;28;20041;-73
2023/06/26 01:14:58;;;;;;;13.18;10.70;;;;;;;-144.73;100.00;54247.59;5007304;28;20046;-72
2023/06/26 01:17:24;;;;;;;16.88;12.13;;;;;;;-144.73;100.00;54276.34;5008565;28;20032;-72
2023/06/26 01:19:51;;;;;;;14.88;12.65;;;;;;;-144.73;100.00;54268.13;5008045;28;20046;-72
2023/06/26 01:22:27;;;;;;;17.45;12.43;;;;;;;-144.73;100.00;54259.91;5009515;28;20029;-72
2023/06/26 01:25:03;;;;;;;13.93;11.98;;;;;;;-144.73;100.00;54239.41;5008117;28;20457;-73
2023/06/26 01:27:32;;;;;;;21.83;16.65;;;;;;;-144.73;100.00;54284.56;5008682;28;20109;-74
2023/06/26 01:30:00;;;;;;;14.18;12.10;;;;;;;-144.73;100.00;54268.13;5007450;28;20041;-73
2023/06/26 01:32:26;;;;;;;14.48;12.07;;;;;;;-144.73;100.00;54296.88;5009089;28;20021;-73
2023/06/26 01:34:52;;;;;;;15.05;11.60;;;;;;;-144.73;100.00;54342.03;5006916;28;20057;-73
2023/06/26 01:37:17;;;;;;;14.00;11.32;;;;;;;-144.73;100.00;54342.03;5008107;28;20053;-74
2023/06/26 01:39:42;;;;;;;14.27;12.52;;;;;;;-144.73;100.00;54303.03;5010036;28;20050;-73
2023/06/26 01:42:08;;;;;;;15.60;12.65;;;;;;;-144.73;100.00;54276.34;5008095;28;20055;-71
2023/06/26 01:44:36;;;;;;;13.40;12.00;;;;;;;-144.73;100.00;54329.72;5004201;28;20029;-71
2023/06/26 01:47:05;;;;;;;14.80;12.25;;;;;;;-144.73;100.00;54292.75;5008500;28;20072;-74
2023/06/26 01:49:39;;;;;;;14.68;11.80;;;;;;;-144.73;100.00;54280.44;5006473;28;20066;-73
2023/06/26 01:52:26;;;;;;;13.10;11.43;;;;;;;-144.73;100.00;54259.91;5008010;28;20068;-71
2023/06/26 01:55:26;;;;;;;16.45;13.32;;;;;;;-144.73;100.00;54309.19;5007309;28;20096;-74
2023/06/26 01:57:55;;;;;;;15.38;12.48;;;;;;;-144.73;100.00;54255.81;5002710;28;20054;-72
2023/06/26 02:00:21;;;;;;;14.55;11.23;;;;;;;-144.73;100.00;54259.91;5007468;28;20049;-72
2023/06/26 02:02:46;;;;;;;14.30;10.98;;;;;;;-144.73;100.00;54296.88;5008810;28;20030;-73
2023/06/26 02:05:12;;;;;;;13.05;11.75;;;;;;;-144.73;100.00;54300.97;5004338;28;20058;-73
2023/06/26 02:07:38;;;;;;;14.18;11.73;;;;;;;-144.73;100.00;54342.03;5008146;28;20014;-73
2023/06/26 02:10:03;;;;;;;17.65;13.13;;;;;;;-144.73;100.00;54296.88;5007033;28;20057;-73
2023/06/26 02:12:29;;;;;;;14.65;11.38;;;;;;;-144.73;100.00;54298.91;5007395;28;20030;-71
2023/06/26 02:14:54;;;;;;;12.60;11.32;;;;;;;-144.73;100.00;54280.44;5007565;28;20048;-72
2023/06/26 02:17:19;;;;;;;15.02;12.00;;;;;;;-144.73;100.00;54309.19;5008007;28;20037;-72
2023/06/26 02:19:47;;;;;;;15.07;12.00;;;;;;;-144.73;100.00;54296.88;5007879;28;20038;-73
2023/06/26 02:22:16;;;;;;;13.65;12.05;;;;;;;-144.73;100.00;54255.81;5010996;28;20026;-72
2023/06/26 02:24:43;;;;;;;18.77;14.45;;;;;;;-144.73;100.00;54309.19;5011116;28;20029;-72
2023/06/26 02:27:09;;;;;;;15.75;12.60;;;;;;;-144.73;100.00;54276.34;5012001;28;20022;-72
2023/06/26 02:29:34;;;;;;;17.02;12.82;;;;;;;-144.73;100.00;54266.06;5011837;28;20046;-72
2023/06/26 02:31:59;;;;;;;15.93;12.98;;;;;;;-144.73;100.00;54317.38;5011210;28;20096;-72
2023/06/26 02:34:25;;;;;;;13.60;11.68;;;;;;;-144.73;100.00;54317.38;5011222;28;20021;-72
2023/06/26 02:36:50;;;;;;;17.40;11.93;;;;;;;-144.73;100.00;54325.59;5010834;28;20021;-72
2023/06/26 02:39:16;;;;;;;13.57;12.10;;;;;;;-144.73;100.00;54268.13;5010530;28;20400;-72
2023/06/26 02:41:41;;;;;;;14.73;12.35;;;;;;;-144.73;100.00;54276.34;5027729;28;20459;-72
2023/06/26 02:44:06;;;;;;;15.88;12.88;;;;;;;-144.73;100.00;54284.56;5011072;28;20029;-73
2023/06/26 02:46:33;;;;;;;21.35;17.30;;;;;;;-144.73;100.00;54321.50;5007292;28;20041;-73
2023/06/26 02:48:58;;;;;;;14.40;12.52;;;;;;;-144.73;100.00;54317.38;5010704;28;20026;-73
2023/06/26 02:51:23;;;;;;;15.48;12.25;;;;;;;-144.73;100.00;54296.88;5026673;28;20425;-73
2023/06/26 02:53:49;;;;;;;16.45;13.88;;;;;;;-144.73;100.00;54313.28;5010965;28;20018;-72
2023/06/26 02:56:14;;;;;;;19.27;13.45;;;;;;;-144.73;100.00;54247.59;5012031;28;20034;-71
2023/06/26 02:58:39;;;;;;;16.90;13.10;;;;;;;-144.73;100.00;54296.88;5011632;28;20054;-72
2023/06/26 03:01:05;;;;;;;15.80;13.02;;;;;;;-144.73;100.00;54276.34;5011496;28;20092;-72
2023/06/26 03:03:30;;;;;;;16.55;13.98;;;;;;;-144.73;100.00;54333.81;5012066;28;20041;-71
2023/06/26 03:05:55;;;;;;;21.35;15.13;;;;;;;-144.73;100.00;54321.50;5009912;28;20051;-72
2023/06/26 03:08:20;;;;;;;17.48;13.63;;;;;;;-144.73;100.00;54296.88;5011311;28;20034;-72
2023/06/26 03:10:46;;;;;;;19.42;12.85;;;;;;;-144.73;100.00;54276.34;5010022;28;20037;-72
2023/06/26 03:13:11;;;;;;;14.73;12.50;;;;;;;-144.73;100.00;54288.66;5010455;28;20041;-72
2023/06/26 03:15:37;;;;;;;14.38;12.18;;;;;;;-144.73;100.00;54303.03;5009907;28;20038;-71
2023/06/26 03:18:02;;;;;;;15.15;12.32;;;;;;;-144.73;100.00;54317.38;5022475;28;20096;-72
2023/06/26 03:20:27;;;;;;;14.93;11.43;;;;;;;-144.73;100.00;54294.81;5008505;28;20030;-72
2023/06/26 03:22:53;;;;;;;17.25;10.93;;;;;;;-144.73;100.00;54276.34;5010251;28;20064;-73
2023/06/26 03:25:19;;;;;;;14.57;11.68;;;;;;;-144.73;100.00;54288.66;5014766;28;20422;-73
2023/06/26 03:27:44;;;;;;;16.17;12.00;;;;;;;-144.73;100.00;54292.75;5029952;28;20041;-72
2023/06/26 03:30:10;;;;;;;18.38;11.02;;;;;;;-144.73;100.00;54327.66;5023649;28;20069;-72
2023/06/26 03:32:35;;;;;;;15.70;11.05;;;;;;;-144.73;100.00;54300.97;5007735;28;20039;-72
2023/06/26 03:35:03;;;;;;;14.57;10.95;;;;;;;-144.73;100.00;54305.06;5008828;28;20029;-72
2023/06/26 03:37:28;;;;;;;14.25;10.82;;;;;;;-144.73;100.00;54333.81;5011641;28;20076;-73
2023/06/26 03:39:54;;;;;;;22.10;11.88;;;;;;;-144.73;100.00;54342.03;5011066;28;20038;-72
2023/06/26 03:42:19;;;;;;;18.38;11.15;;;;;;;-144.73;100.00;54352.28;5011016;28;20482;-72
2023/06/26 03:44:45;;;;;;;16.55;11.48;;;;;;;-144.73;100.00;54325.59;5009320;28;20061;-73
2023/06/26 03:47:10;;;;;;;17.17;10.95;;;;;;;-144.73;100.00;54284.56;5010523;28;20095;-72
2023/06/26 03:49:35;;;;;;;14.23;10.10;;;;;;;-144.73;100.00;54317.38;5009667;28;20050;-73
2023/06/26 03:52:01;;;;;;;16.27;11.20;;;;;;;-144.73;100.00;54290.72;5009955;28;20027;-72
2023/06/26 03:54:26;;;;;;;14.80;10.70;;;;;;;-144.73;100.00;54313.28;5009666;28;20026;-72
2023/06/26 03:56:51;;;;;;;13.75;10.73;;;;;;;-144.73;100.00;54305.06;5011058;28;20060;-72
2023/06/26 03:59:17;;;;;;;13.93;9.95;;;;;;;-144.73;100.00;54300.97;5010737;28;20022;-72
2023/06/26 04:01:42;;;;;;;14.65;10.38;;;;;;;-144.73;100.00;54284.56;5009017;28;20053;-72
2023/06/26 04:04:08;;;;;;;15.43;11.00;;;;;;;-144.73;100.00;54317.38;5018100;28;20045;-74
2023/06/26 04:06:33;;;;;;;13.57;10.70;;;;;;;-144.73;100.00;54284.56;5011276;28;20060;-73
2023/06/26 04:08:58;;;;;;;14.68;9.93;;;;;;;-144.73;100.00;54296.88;5012028;28;20026;-73
2023/06/26 04:11:24;;;;;;;14.05;9.98;;;;;;;-144.73;100.00;54321.50;5008927;28;20041;-72
2023/06/26 04:13:50;;;;;;;13.02;10.15;;;;;;;-144.73;100.00;54333.81;5008789;28;20022;-73
2023/06/26 04:16:15;;;;;;;14.00;10.13;;;;;;;-144.73;100.00;54276.34;5010443;28;20034;-72
2023/06/26 04:18:41;;;;;;;14.95;9.90;;;;;;;-144.73;100.00;54300.97;5009273;28;20148;-72
2023/06/26 04:21:11;;;;;;;13.35;9.00;;;;;;;-144.73;100.00;54288.66;5008436;28;20121;-72
2023/06/26 04:23:38;;;;;;;18.30;9.55;;;;;;;-144.73;100.00;54300.97;5010842;28;20051;-72
2023/06/26 04:26:07;;;;;;;10.18;8.43;;;;;;;-144.73;100.00;54305.06;5008842;28;20092;-72
2023/06/26 04:28:34;;;;;;;13.38;10.00;;;;;;;-144.73;100.00;54288.66;5009293;28;20029;-72
2023/06/26 04:31:00;;;;;;;11.30;8.23;;;;;;;-144.73;100.00;54296.88;5008420;28;20117;-73
2023/06/26 04:33:26;;;;;;;12.55;9.07;;;;;;;-144.73;100.00;54290.72;5009018;28;20025;-73
2023/06/26 04:35:52;;;;;;;13.60;9.02;;;;;;;-144.73;100.00;54317.38;5008852;28;20040;-73
2023/06/26 04:38:18;;;;;;;10.32;8.27;;;;;;;-144.73;100.00;54309.19;5009869;28;20044;-72
2023/06/26 04:40:44;;;;;;;25.98;9.10;;;;;;;-144.73;100.00;54305.06;5008764;28;20038;-72
2023/06/26 04:43:10;;;;;;;12.57;8.43;;;;;;;-144.73;100.00;54300.97;5001129;28;20081;-72
2023/06/26 04:45:35;;;;;;;11.65;8.13;;;;;;;-144.73;100.00;54305.06;5019077;28;20034;-72
2023/06/26 04:48:00;;;;;;;11.00;8.05;;;;;;;-144.73;100.00;54245.56;5005503;28;20018;-72
2023/06/26 04:50:28;;;;;;;9.07;7.78;;;;;;;-144.73;100.00;54292.75;5005922;28;20034;-72
2023/06/26 04:52:54;;;;;;;9.55;6.68;;;;;;;-144.73;100.00;54300.97;5007598;28;20018;-73
2023/06/26 04:55:21;;;;;;;11.10;7.18;;;;;;;-144.73;100.00;54286.59;5005864;28;20031;-72
2023/06/26 04:57:47;;;;;;;11.15;8.70;;;;;;;-144.73;100.00;54313.28;5008176;28;20029;-73
2023/06/26 05:00:13;;;;;;;17.60;7.50;;;;;;;-144.73;100.00;54317.38;4997122;28;20133;-73
2023/06/26 05:02:38;;;;;;;13.63;8.18;;;;;;;-144.73;100.00;54296.88;5007850;28;20041;-73
2023/06/26 05:05:04;;;;;;;12.18;8.50;;;;;;;-144.73;100.00;54317.38;5006598;28;20034;-73
2023/06/26 05:07:29;;;;;;;10.57;7.55;;;;;;;-144.73;100.00;54296.88;5008467;28;20018;-73
2023/06/26 05:09:55;;;;;;;14.23;8.07;;;;;;;-144.73;100.00;54296.88;5006415;28;20041;-74
2023/06/26 05:12:20;;;;;;;10.50;6.90;;;;;;;-144.73;100.00;54292.75;5003874;28;20026;-73
2023/06/26 05:14:46;;;;;;;13.05;8.50;;;;;;;-144.73;100.00;54296.88;5016038;28;20081;-73
2023/06/26 05:17:14;;;;;;;11.32;8.27;;;;;;;-144.73;100.00;54294.81;5003655;28;20053;-73
2023/06/26 05:19:39;;;;;;;10.43;7.22;;;;;;;-144.73;100.00;54292.75;5006720;28;20117;-73
2023/06/26 05:22:09;;;;;;;9.68;7.90;;;;;;;-144.73;98.63;54276.34;5009468;28;21023;-73
2023/06/26 05:24:38;;;;;;;10.50;7.93;;;;;;;-144.73;100.00;54342.03;5021702;28;20037;-73
2023/06/26 05:27:04;;;;;;;11.77;7.63;;;;;;;-144.73;100.00;54288.66;5008751;28;20022;-72
2023/06/26 05:29:33;;;;;;;9.40;6.90;;;;;;;-144.73;100.00;54296.88;5013477;28;20026;-75
2023/06/26 05:31:59;;;;;;;10.45;7.43;;;;;;;-144.73;100.00;54309.19;5024937;28;20030;-75
2023/06/26 05:34:28;;;;;;;14.77;8.27;;;;;;;-144.73;100.00;54276.34;5003193;28;20475;-79
2023/06/26 05:36:58;;;;;;;11.15;7.32;;;;;;;-144.73;100.00;54288.66;5008495;28;20098;-76
2023/06/26 05:39:24;;;;;;;12.20;8.05;;;;;;;-144.73;100.00;54296.88;5004531;28;20022;-77
2023/06/26 05:41:50;;;;;;;11.55;7.88;;;;;;;-144.73;100.00;54342.03;5018737;28;20030;-78
2023/06/26 05:44:15;;;;;;;13.73;7.88;;;;;;;-144.73;100.00;54296.88;5003765;28;20028;-75
2023/06/26 05:46:40;;;;;;;12.98;7.55;;;;;;;-144.73;100.00;54284.56;5004706;28;20057;-76
2023/06/26 05:49:06;;;;;;;12.93;7.55;;;;;;;-144.73;100.00;54313.28;5005471;28;20060;-79
2023/06/26 05:51:32;;;;;;;10.77;7.85;;;;;;;-144.73;100.00;54255.81;5004181;28;20045;-76
2023/06/26 05:53:57;;;;;;;12.75;8.02;;;;;;;-144.73;100.00;54292.75;5008127;28;20029;-75
2023/06/26 05:56:23;;;;;;;14.95;7.68;;;;;;;-144.73;100.00;54303.03;5007720;28;20034;-78
2023/06/26 05:58:50;;;;;;;14.13;8.70;;;;;;;-144.73;100.00;54280.44;5016519;28;20022;-79
2023/06/26 06:01:16;;;;;;;11.35;7.70;;;;;;;-144.73;100.00;54292.75;5004359;28;20031;-76
2023/06/26 06:03:41;;;;;;;12.77;8.00;;;;;;;-144.73;100.00;54284.56;5006459;28;20036;-76
2023/06/26 06:06:06;;;;;;;11.45;7.78;;;;;;;-144.73;100.00;54296.88;5008809;28;20068;-76
2023/06/26 06:08:32;;;;;;;10.25;7.55;;;;;;;-144.73;98.56;54255.81;5008865;28;20030;-77
2023/06/26 06:11:00;;;;;;;19.52;8.43;;;;;;;-144.73;99.08;54298.91;5006991;28;20057;-78
2023/06/26 06:13:26;;;;;;;17.35;7.72;;;;;;;-144.73;97.80;54309.19;5009238;28;20053;-76
2023/06/26 06:15:51;;;;;;;8.52;6.95;;;;;;;-144.73;96.63;54329.72;5008723;28;20068;-79
2023/06/26 06:18:17;;;;;;;10.05;7.88;;;;;;;-144.73;96.98;54300.97;5009083;28;20033;-76
2023/06/26 06:20:42;;;;;;;17.67;7.80;;;;;;;-144.73;95.39;54247.59;5002292;28;20042;-76
2023/06/26 06:23:07;;;;;;;10.63;7.00;;;;;;;-144.73;96.05;54315.34;5007750;28;20061;-80
2023/06/26 06:25:33;;;;;;;10.35;7.53;;;;;;;-144.73;94.22;54284.56;5005890;28;20034;-75
2023/06/26 06:27:58;;;;;;;11.52;7.75;;;;;;;-144.73;93.30;54247.59;5006885;28;20085;-77
2023/06/26 06:30:23;;;;;;;12.00;7.70;;;;;;;-144.73;94.23;54284.56;5011529;28;20454;-77
2023/06/26 06:32:51;;;;;;;10.80;7.88;;;;;;;-144.73;92.84;54251.72;5015033;28;20022;-75
2023/06/26 06:35:19;;;;;;;9.65;6.97;;;;;;;-144.73;93.64;54288.66;5013470;28;20042;-75
2023/06/26 06:37:45;;;;;;;13.00;7.78;;;;;;;-144.73;90.85;54276.34;5015991;28;20041;-77
2023/06/26 06:40:11;;;;;;;11.82;8.07;;;;;;;-144.73;91.08;54296.88;5015592;28;20037;-77
2023/06/26 06:42:36;;;;;;;11.77;7.80;;;;;;;-144.73;91.45;54286.59;5014427;28;20021;-76
2023/06/26 06:45:02;;;;;;;13.77;7.20;;;;;;;-144.73;92.20;54296.88;5013693;28;20040;-76
2023/06/26 06:47:28;;;;;;;10.48;7.35;;;;;;;-144.73;91.56;54239.41;5013897;28;20033;-76
2023/06/26 06:49:54;;;;;;;14.20;8.73;;;;;;;-144.73;90.11;54288.66;5018033;28;20042;-76
2023/06/26 06:52:19;;;;;;;12.43;7.78;;;;;;;-144.73;92.62;54261.97;5017886;28;20026;-78
2023/06/26 06:54:58;;;;;;;10.85;7.72;;;;;;;-144.73;90.76;54276.34;5018755;28;20042;-75
2023/06/26 06:57:24;;;;;;;13.18;7.32;;;;;;;-144.73;89.96;54296.88;5014917;28;20032;-77
2023/06/26 06:59:49;;;;;;;13.02;7.30;;;;;;;-144.73;88.84;54284.56;5014836;28;20041;-76
2023/06/26 07:02:17;;;;;;;17.00;7.78;;;;;;;-144.73;88.97;54255.81;5015228;28;20032;-77
2023/06/26 07:04:42;;;;;;;15.82;8.30;;;;;;;-144.73;89.61;54276.34;5018426;28;20044;-76
2023/06/26 07:07:08;;;;;;;13.32;8.35;;;;;;;-144.73;89.92;54305.06;5019441;28;20104;-81
2023/06/26 07:09:33;;;;;;;11.23;7.78;;;;;;;-144.73;89.25;54276.34;5023039;28;20030;-75
2023/06/26 07:12:00;;;;;;;14.90;7.82;;;;;;;-144.73;88.60;54300.97;5031125;28;20073;-77
2023/06/26 07:14:25;;;;;;;11.45;7.53;;;;;;;-144.73;88.61;54280.44;5020081;28;20052;-76
2023/06/26 07:16:50;;;;;;;12.65;7.47;;;;;;;-144.73;88.21;54282.50;5017561;28;20049;-77
2023/06/26 07:19:16;;;;;;;9.23;6.85;;;;;;;-144.73;86.08;54288.66;5018487;28;20045;-76
2023/06/26 07:21:42;;;;;;;11.27;8.35;;;;;;;-144.73;86.59;54288.66;5020737;28;20025;-76
2023/06/26 07:24:08;;;;;;;15.38;7.63;;;;;;;-144.73;86.84;54259.91;5012541;28;20022;-77
2023/06/26 07:26:33;;;;;;;12.18;8.35;;;;;;;-144.73;86.23;54243.50;5008869;28;20136;-77
2023/06/26 07:29:02;;;;;;;14.15;7.47;;;;;;;-144.73;84.14;54247.59;5010434;28;20018;-77
2023/06/26 07:31:27;;;;;;;12.18;8.23;;;;;;;-144.73;83.41;54231.19;5010084;28;20072;-77
2023/06/26 07:33:52;;;;;;;14.07;7.15;;;;;;;-144.73;82.03;54210.66;5009379;28;20061;-76
2023/06/26 07:36:18;;;;;;;11.45;8.38;;;;;;;-144.73;80.57;54214.78;5010821;28;20037;-79
2023/06/26 07:38:43;;;;;;;10.88;7.07;;;;;;;-144.73;81.29;54247.59;5016574;28;20103;-80
2023/06/26 07:41:09;;;;;;;13.82;8.20;;;;;;;-144.73;81.08;54276.34;5010622;28;20109;-77
2023/06/26 07:43:34;;;;;;;9.32;7.25;;;;;;;-144.73;78.51;54210.66;5027490;28;20018;-75
2023/06/26 07:45:59;;;;;;;11.55;7.40;;;;;;;-144.73;79.82;54222.97;5017415;28;20128;-75
2023/06/26 07:48:25;;;;;;;8.32;6.47;;;;;;;-144.73;77.34;54210.66;4997488;28;20022;-76
2023/06/26 07:50:50;;;;;;;14.35;7.95;;;;;;;-144.73;77.98;54235.28;5007829;28;20156;-76
2023/06/26 07:53:16;;;;;;;11.48;7.43;;;;;;;-144.73;74.69;54198.34;5023695;28;20034;-81
2023/06/26 07:55:42;;;;;;;9.02;7.03;;;;;;;-144.73;75.95;54231.19;5007062;28;20058;-77
2023/06/26 07:58:08;;;;;;;12.52;7.53;;;;;;;-144.73;76.96;54222.97;5010518;28;20157;-77
2023/06/26 08:00:33;;;;;;;11.45;7.22;;;;;;;-144.73;73.93;54210.66;5023627;28;20465;-76
2023/06/26 08:02:59;;;;;;;9.43;7.28;;;;;;;-144.73;74.51;54198.34;5016130;28;20022;-77
2023/06/26 08:05:24;;;;;;;16.40;7.28;;;;;;;-144.73;73.17;54194.25;5004446;28;20475;-77
2023/06/26 08:07:49;;;;;;;14.25;7.82;;;;;;;-144.73;72.08;54214.78;5011084;28;20060;-77
2023/06/26 08:10:15;;;;;;;15.75;7.18;;;;;;;-144.73;67.95;54202.44;5002837;28;20402;-79
2023/06/26 08:12:42;;;;;;;12.27;8.65;;;;;;;-144.73;69.10;54229.13;5010155;28;20056;-76
2023/06/26 08:15:09;;;;;;;12.00;7.43;;;;;;;-144.73;71.71;54249.66;5009554;28;20034;-76
2023/06/26 08:17:35;;;;;;;15.32;7.70;;;;;;;-144.73;70.28;54210.66;5009555;28;20014;-76
2023/06/26 08:20:01;;;;;;;9.68;7.07;;;;;;;-144.73;71.39;54210.66;5008832;28;20034;-75
2023/06/26 08:22:27;;;;;;;10.85;6.88;;;;;;;-144.73;70.06;54165.50;5010100;28;20032;-82
2023/06/26 08:24:52;;;;;;;13.95;8.20;;;;;;;-144.73;70.67;54239.41;5011763;28;20042;-76
2023/06/26 08:27:18;;;;;;;10.68;7.60;;;;;;;-144.73;70.46;54222.97;5006638;28;20116;-78
2023/06/26 08:29:43;;;;;;;21.80;7.90;;;;;;;-144.73;69.51;54194.25;4999275;28;20454;-76
2023/06/26 08:32:08;;;;;;;12.55;8.02;;;;;;;-144.73;67.68;54235.28;5009292;28;20014;-76
2023/06/26 08:34:34;;;;;;;16.52;7.75;;;;;;;-144.73;68.29;54218.88;5006777;28;20038;-76
2023/06/26 08:36:59;;;;;;;12.13;7.57;;;;;;;-144.73;68.53;54194.25;5000331;28;20056;-75
2023/06/26 08:39:25;;;;;;;11.05;7.43;;;;;;;-144.73;67.95;54194.25;4990599;28;20018;-77
2023/06/26 08:41:50;;;;;;;19.77;7.35;;;;;;;-144.73;64.59;54212.72;4996528;28;20022;-78
2023/06/26 08:44:16;;;;;;;18.58;8.48;;;;;;;-144.73;62.11;54173.72;5006099;28;20025;-76
2023/06/26 08:46:43;;;;;;;14.20;7.18;;;;;;;-144.73;60.63;54186.03;5019162;28;20043;-79
2023/06/26 08:49:25;;;;;;;16.50;7.05;;;;;;;-144.73;62.79;54231.19;5008501;28;20121;-76
2023/06/26 08:51:55;;;;;;;9.32;7.43;;;;;;;-144.73;62.41;54198.34;5008797;28;20062;-77
2023/06/26 08:54:30;;;;;;;11.60;7.55;;;;;;;-144.73;64.34;54222.97;5006340;28;20030;-79
2023/06/26 08:56:57;;;;;;;12.82;7.00;;;;;;;-144.73;62.77;54192.19;5009416;28;20109;-76
2023/06/26 08:59:23;;;;;;;11.82;7.72;;;;;;;-144.73;63.63;54186.03;5009207;28;20076;-77
2023/06/26 09:01:49;;;;;;;8.52;7.25;;;;;;;-144.73;63.65;54206.56;5014316;28;20034;-76
2023/06/26 09:04:15;;;;;;;13.23;7.28;;;;;;;-144.73;62.87;54198.34;5010060;28;20021;-77
2023/06/26 09:06:41;;;;;;;12.02;7.68;;;;;;;-144.73;61.88;54222.97;5005717;28;20081;-76
2023/06/26 09:09:07;;;;;;;20.83;7.78;;;;;;;-144.73;62.63;54210.66;5008824;28;20034;-77
2023/06/26 09:11:33;;;;;;;15.57;8.15;;;;;;;-144.73;63.92;54186.03;5021431;28;20031;-76
2023/06/26 09:13:59;;;;;;;10.02;7.82;;;;;;;-144.73;64.43;54206.56;5007320;28;20112;-79
2023/06/26 09:16:28;;;;;;;14.75;9.07;;;;;;;-144.73;63.78;54202.44;5005134;28;20042;-79
2023/06/26 09:18:56;;;;;;;13.32;8.50;;;;;;;-144.73;67.61;54210.66;5000370;28;20026;-76
2023/06/26 09:21:23;;;;;;;12.32;9.27;;;;;;;-144.73;67.98;54202.44;5008397;28;20038;-76
2023/06/26 09:23:50;;;;;;;11.88;8.93;;;;;;;-144.73;67.47;54161.41;5008899;28;20112;-77
2023/06/26 09:26:16;;;;;;;16.10;9.68;;;;;;;-144.73;65.73;54186.03;5008557;28;20577;-77
2023/06/26 09:28:43;;;;;;;14.57;10.05;;;;;;;-144.73;67.01;54218.88;5009013;28;20049;-76
2023/06/26 09:31:09;;;;;;;13.40;10.57;;;;;;;-144.73;67.40;54188.09;5007544;28;20065;-76
2023/06/26 09:33:37;;;;;;;15.77;10.95;;;;;;;-144.73;69.26;54214.78;5006572;28;20022;-80
2023/06/26 09:36:20;;;;;;;13.90;10.52;;;;;;;-144.73;68.98;54198.34;5007107;28;20034;-76
2023/06/26 09:38:45;;;;;;;16.38;10.82;;;;;;;-144.73;69.99;54212.72;5009500;28;20033;-82
2023/06/26 09:41:10;;;;;;;22.45;11.02;;;;;;;-144.73;72.98;54214.78;5009444;28;20030;-76
2023/06/26 09:43:45;;;;;;;22.40;11.77;;;;;;;-144.73;75.51;54233.25;5010673;28;20021;-78
2023/06/26 09:46:15;;;;;;;21.85;13.20;;;;;;;-144.73;75.51;54255.81;5024724;28;20173;-76
2023/06/26 09:48:41;;;;;;;15.82;12.10;;;;;;;-144.73;77.12;54245.56;5004897;28;20034;-75
2023/06/26 09:51:06;;;;;;;23.42;10.40;;;;;;;-144.73;77.17;54225.03;5023526;28;20053;-77
2023/06/26 09:53:36;;;;;;;25.88;12.55;;;;;;;-144.73;81.01;54247.59;5009303;28;20120;-76
2023/06/26 09:56:06;;;;;;;19.10;11.10;;;;;;;-144.73;85.02;54247.59;5007592;28;20034;-76
2023/06/26 09:58:32;;;;;;;23.65;12.40;;;;;;;-144.73;87.59;54280.44;5004935;28;20030;-76
2023/06/26 10:00:58;;;;;;;27.60;13.30;;;;;;;-144.73;90.83;54220.94;4998454;28;20442;-76
2023/06/26 10:03:23;;;;;;;32.50;12.98;;;;;;;-144.73;92.00;54259.91;5005092;28;20074;-76
2023/06/26 10:05:49;;;;;;;33.58;12.82;;;;;;;-144.73;93.01;54296.88;5006256;28;20041;-80
2023/06/26 10:08:16;;;;;;;30.92;11.68;;;;;;;-144.73;91.05;54251.72;5008674;28;20030;-80
2023/06/26 10:10:43;;;;;;;22.60;12.32;;;;;;;-144.73;90.64;54257.88;5008026;28;20033;-76
2023/06/26 10:13:16;;;;;;;21.33;13.20;;;;;;;-144.73;91.83;54268.13;5008076;28;20029;-76
2023/06/26 10:15:45;;;;;;;16.77;11.73;;;;;;;-144.73;93.67;54296.88;5008428;28;20056;-76
2023/06/26 10:18:12;;;;;;;36.88;15.98;;;;;;;-144.73;98.81;54255.81;5008258;28;20026;-75
2023/06/26 10:20:38;;;;;;;30.25;15.93;;;;;;;-144.73;100.00;54259.91;5002772;28;20242;-76
2023/06/26 10:23:06;;;;;;;30.33;13.70;;;;;;;-144.73;100.00;54276.34;5008050;28;20045;-76
2023/06/26 10:25:32;;;;;;;22.25;16.50;;;;;;;-144.73;100.00;54259.91;5007325;28;20565;-75
2023/06/26 10:28:00;;;;;;;22.85;16.67;;;;;;;-144.73;100.00;54337.91;5007499;28;20109;-75
2023/06/26 10:30:34;;;;;;;25.05;15.57;;;;;;;-144.73;100.00;54288.66;5006198;28;20094;-76
2023/06/26 10:33:02;;;;;;;29.13;17.55;;;;;;;-144.73;100.00;54280.44;5006028;28;20022;-74
2023/06/26 10:35:27;;;;;;;37.13;19.58;;;;;;;-144.73;100.00;54325.59;5007055;28;20026;-71
2023/06/26 10:38:01;;;;;;;36.85;19.00;;;;;;;-144.73;100.00;54315.34;5007715;28;20033;-71
2023/06/26 10:40:28;;;;;;;26.83;15.60;;;;;;;-144.73;100.00;54358.44;5001160;28;20045;-72
2023/06/26 10:43:08;;;;;;;19.83;12.82;;;;;;;-144.73;100.00;54325.59;5011291;28;20025;-73
2023/06/26 10:45:34;;;;;;;21.02;13.02;;;;;;;-144.73;100.00;54296.88;5006136;28;20030;-72
2023/06/26 10:48:00;;;;;;;23.30;13.75;;;;;;;-144.73;100.00;54348.19;5010530;28;20022;-73
2023/06/26 10:50:28;;;;;;;22.08;13.35;;;;;;;-144.73;100.00;54296.88;5010677;28;20034;-72
2023/06/26 10:53:33;;;;;;;23.95;13.73;;;;;;;-144.73;100.00;54337.91;5008757;28;20140;-72
2023/06/26 10:56:01;;;;;;;16.50;12.10;;;;;;;-144.73;100.00;54309.19;5010634;28;20030;-71
2023/06/26 10:58:47;;;;;;;19.33;12.52;;;;;;;-144.73;100.00;54292.75;5015717;28;20121;-73
2023/06/26 11:01:15;;;;;;;20.85;11.27;;;;;;;-144.73;100.00;54358.44;5009588;28;20029;-74